createdAt,value
2023-12-24T00:00:50.874Z,72
2023-12-24T00:06:07.568Z,80
2023-12-24T00:11:23.838Z,71
2023-12-24T00:16:41.177Z,80
2023-12-24T00:21:57.602Z,75
2023-12-24T00:27:13.809Z,74
2023-12-24T00:32:30.283Z,83
2023-12-24T00:37:47.245Z,86
2023-12-24T00:43:04.249Z,87
2023-12-24T00:48:21.717Z,103
2023-12-24T00:53:38.396Z,76
2023-12-24T00:58:55.970Z,83
2023-12-24T01:04:11.414Z,72
2023-12-24T01:09:27.991Z,78
2023-12-24T01:14:44.397Z,79
2023-12-24T01:20:00.679Z,96
2023-12-24T01:25:16.716Z,73
2023-12-24T01:30:33.191Z,82
2023-12-24T01:35:49.692Z,93
2023-12-24T01:41:06.149Z,76
2023-12-24T01:46:22.264Z,69
2023-12-24T01:51:38.426Z,67
2023-12-24T01:56:55.431Z,65
2023-12-24T02:02:11.839Z,59
2023-12-24T02:07:28.751Z,64
2023-12-24T02:12:45.166Z,71
2023-12-24T02:18:01.879Z,58
2023-12-24T02:23:18.578Z,56
2023-12-24T02:28:34.908Z,47
2023-12-24T02:33:51.105Z,48
2023-12-24T02:39:07.438Z,47
2023-12-24T02:44:23.907Z,47
2023-12-24T02:49:40.232Z,37
2023-12-24T02:54:56.613Z,33
2023-12-24T03:00:14.854Z,42
2023-12-24T03:05:29.231Z,42
2023-12-24T03:10:46.102Z,43
2023-12-24T03:16:02.506Z,42
2023-12-24T03:21:19.412Z,43
2023-12-24T03:26:35.748Z,52
2023-12-24T03:31:52.017Z,41
2023-12-24T03:37:08.407Z,40
2023-12-24T03:42:24.790Z,37
2023-12-24T03:47:41.366Z,41
2023-12-24T03:53:00.433Z,55
2023-12-24T03:58:13.704Z,46
2023-12-24T04:03:30.036Z,47
2023-12-24T04:08:46.423Z,43
2023-12-24T04:14:02.813Z,41
2023-12-24T04:19:19.409Z,43
2023-12-24T04:24:35.559Z,34
2023-12-24T04:29:51.931Z,43
2023-12-24T04:35:08.292Z,38
2023-12-24T04:40:25.132Z,38
2023-12-24T04:45:41.287Z,39
2023-12-24T04:50:57.673Z,37
2023-12-24T04:56:14.142Z,38
2023-12-24T05:01:30.621Z,34
2023-12-24T05:06:47.007Z,36
2023-12-24T05:12:03.977Z,33
2023-12-24T05:17:20.950Z,40
2023-12-24T05:22:37.216Z,41
2023-12-24T05:27:53.596Z,32
2023-12-24T05:33:10.024Z,27
2023-12-24T05:38:26.301Z,25
2023-12-24T05:43:42.617Z,39
2023-12-24T05:48:58.996Z,46
2023-12-24T05:54:15.885Z,44
2023-12-24T05:59:32.322Z,51
2023-12-24T06:04:48.637Z,31
2023-12-24T06:10:05.015Z,28
2023-12-24T06:15:21.397Z,26
2023-12-24T06:20:37.848Z,47
2023-12-24T06:25:54.185Z,46
2023-12-24T06:31:10.986Z,80
2023-12-24T06:36:27.978Z,68
2023-12-24T06:41:44.394Z,50
2023-12-24T06:47:00.775Z,47
2023-12-24T06:52:17.098Z,47
2023-12-24T06:57:33.317Z,90
2023-12-24T07:02:49.888Z,63
2023-12-24T07:08:06.152Z,59
2023-12-24T07:13:22.312Z,76
2023-12-24T07:18:38.826Z,47
2023-12-24T07:23:54.940Z,93
2023-12-24T07:29:11.420Z,64
2023-12-24T07:34:28.513Z,64
2023-12-24T07:39:44.536Z,77
2023-12-24T07:45:00.966Z,68
2023-12-24T07:50:17.447Z,62
2023-12-24T07:55:33.754Z,63
2023-12-24T08:00:50.140Z,58
2023-12-24T08:06:07.460Z,58
2023-12-24T08:11:23.507Z,64
2023-12-24T08:16:40.386Z,66
2023-12-24T08:21:57.724Z,57
2023-12-24T08:27:14.074Z,48
2023-12-24T08:32:31.001Z,52
2023-12-24T08:37:46.800Z,51
2023-12-24T08:43:02.963Z,53
2023-12-24T08:48:19.408Z,70
2023-12-24T08:53:35.173Z,38
2023-12-24T08:58:51.510Z,36
2023-12-24T09:04:07.797Z,34
2023-12-24T09:09:24.126Z,30
2023-12-24T09:14:40.569Z,45
2023-12-24T09:19:56.610Z,48
2023-12-24T09:25:12.986Z,53
2023-12-24T09:30:29.412Z,44
2023-12-24T09:35:48.376Z,48
2023-12-24T09:41:03.543Z,59
2023-12-24T09:46:19.927Z,55
2023-12-24T09:51:36.082Z,55
2023-12-24T09:56:52.425Z,42
2023-12-24T10:02:09.332Z,47
2023-12-24T10:07:25.398Z,47
2023-12-24T10:12:41.758Z,44
2023-12-24T10:17:58.766Z,44
2023-12-24T10:23:15.159Z,39
2023-12-24T10:28:31.215Z,38
2023-12-24T10:33:48.045Z,41
2023-12-24T10:39:04.271Z,34
2023-12-24T10:44:20.620Z,24
2023-12-24T10:49:36.939Z,22
2023-12-24T10:54:53.244Z,20
2023-12-24T11:00:09.593Z,16
2023-12-24T11:05:25.926Z,17
2023-12-24T11:10:42.252Z,24
2023-12-24T11:15:58.419Z,20
2023-12-24T11:21:14.736Z,26
2023-12-24T11:26:31.135Z,23
2023-12-24T11:31:47.630Z,23
2023-12-24T11:37:03.964Z,26
2023-12-24T11:42:20.288Z,21
2023-12-24T11:47:36.692Z,24
2023-12-24T11:52:53.484Z,20
2023-12-24T11:58:09.192Z,23
2023-12-24T12:03:25.540Z,21
2023-12-24T12:08:42.385Z,21
2023-12-24T12:13:58.658Z,18
2023-12-24T12:19:15.013Z,20
2023-12-24T12:24:31.284Z,16
2023-12-24T12:29:47.692Z,19
2023-12-24T12:35:04.807Z,24
2023-12-24T12:40:24.426Z,26
2023-12-24T12:45:37.459Z,24
2023-12-24T12:50:53.557Z,29
2023-12-24T12:56:09.910Z,21
2023-12-24T13:01:26.336Z,20
2023-12-24T13:06:42.599Z,19
2023-12-24T13:11:58.834Z,21
2023-12-24T13:17:15.224Z,22
2023-12-24T13:22:32.142Z,28
2023-12-24T13:27:49.048Z,31
2023-12-24T13:33:05.553Z,39
2023-12-24T13:38:21.928Z,24
2023-12-24T13:43:38.436Z,21
2023-12-24T13:48:54.845Z,23
2023-12-24T13:54:11.177Z,22
2023-12-24T13:59:27.401Z,22
2023-12-24T14:04:44.075Z,32
2023-12-24T14:10:00.382Z,34
2023-12-24T14:15:17.721Z,30
2023-12-24T14:20:33.220Z,24
2023-12-24T14:25:49.937Z,27
2023-12-24T14:31:06.268Z,22
2023-12-24T14:36:22.583Z,36
2023-12-24T14:41:38.938Z,29
2023-12-24T14:46:55.290Z,54
2023-12-24T14:52:11.890Z,60
2023-12-24T14:57:28.059Z,70
2023-12-24T15:02:44.801Z,56
2023-12-24T15:08:00.811Z,42
2023-12-24T15:13:17.197Z,60
2023-12-24T15:18:34.446Z,75
2023-12-24T15:23:50.697Z,60
2023-12-24T15:29:08.155Z,77
2023-12-24T15:34:24.475Z,61
2023-12-24T15:39:40.798Z,54
2023-12-24T15:44:57.230Z,48
2023-12-24T15:50:13.354Z,54
2023-12-24T15:55:29.694Z,53
2023-12-24T16:00:46.117Z,59
2023-12-24T16:06:02.890Z,64
2023-12-24T16:11:19.010Z,72
2023-12-24T16:16:35.378Z,70
2023-12-24T16:21:51.720Z,64
2023-12-24T16:27:07.924Z,81
2023-12-24T16:32:25.262Z,92
2023-12-24T16:37:41.954Z,86
2023-12-24T16:42:59.213Z,85
2023-12-24T16:48:16.742Z,72
2023-12-24T16:53:33.630Z,83
2023-12-24T16:58:49.900Z,87
2023-12-24T17:04:07.546Z,76
2023-12-24T17:09:24.534Z,83
2023-12-24T17:14:41.440Z,90
2023-12-24T17:19:58.271Z,94
2023-12-24T17:25:14.324Z,79
2023-12-24T17:30:31.520Z,78
2023-12-24T17:35:48.551Z,80
2023-12-24T17:41:04.892Z,76
2023-12-24T17:46:21.651Z,72
2023-12-24T17:51:38.623Z,67
2023-12-24T17:56:54.777Z,74
2023-12-24T18:02:11.680Z,101
2023-12-24T18:07:27.874Z,104
2023-12-24T18:12:44.550Z,99
2023-12-24T18:18:01.790Z,109
2023-12-24T18:23:18.748Z,89
2023-12-24T18:28:34.975Z,123
2023-12-24T18:33:51.280Z,88
2023-12-24T18:39:08.359Z,93
2023-12-24T18:44:24.639Z,100
2023-12-24T18:49:40.796Z,75
2023-12-24T18:54:56.996Z,72
2023-12-24T19:00:13.164Z,75
2023-12-24T19:05:29.427Z,106
2023-12-24T19:10:45.779Z,80
2023-12-24T19:16:01.968Z,73
2023-12-24T19:21:18.301Z,67
2023-12-24T19:26:34.666Z,74
2023-12-24T19:31:51.631Z,87
2023-12-24T19:37:08.688Z,81
2023-12-24T19:42:24.904Z,86
2023-12-24T19:47:41.774Z,78
2023-12-24T19:52:58.460Z,81
2023-12-24T19:58:15.480Z,75
2023-12-24T20:03:32.116Z,70
2023-12-24T20:08:48.332Z,76
2023-12-24T20:14:05.314Z,85
2023-12-24T20:19:22.243Z,95
2023-12-24T20:24:38.857Z,91
2023-12-24T20:29:55.117Z,91
2023-12-24T20:35:11.590Z,93
2023-12-24T20:40:27.812Z,101
2023-12-24T20:45:44.029Z,96
2023-12-24T20:51:03.524Z,92
2023-12-24T20:56:18.045Z,96
2023-12-24T21:01:35.060Z,107
2023-12-24T21:06:51.894Z,96
2023-12-24T21:12:08.750Z,101
2023-12-24T21:17:25.603Z,94
2023-12-24T21:22:41.813Z,92
2023-12-24T21:27:58.759Z,103
2023-12-24T21:33:15.384Z,96
2023-12-24T21:38:31.521Z,100
2023-12-24T21:43:48.282Z,93
2023-12-24T21:49:04.815Z,77
2023-12-24T21:54:20.854Z,63
2023-12-24T21:59:37.701Z,77
2023-12-24T22:04:54.528Z,92
2023-12-24T22:10:10.674Z,96
2023-12-24T22:15:27.749Z,92
2023-12-24T22:20:44.714Z,89
2023-12-24T22:26:00.653Z,81
2023-12-24T22:31:17.123Z,68
2023-12-24T22:36:33.523Z,68
2023-12-24T22:41:50.033Z,61
2023-12-24T22:47:06.088Z,61
2023-12-24T22:52:22.478Z,59
2023-12-24T22:57:38.649Z,71
2023-12-24T23:02:54.842Z,72
2023-12-24T23:08:11.198Z,66
2023-12-24T23:13:28.014Z,73
2023-12-24T23:18:44.225Z,62
2023-12-24T23:24:00.510Z,57
2023-12-24T23:29:17.294Z,67
2023-12-24T23:34:33.768Z,74
2023-12-24T23:39:50.432Z,75
2023-12-24T23:45:06.826Z,53
2023-12-24T23:50:22.991Z,58
2023-12-24T23:55:39.306Z,58
